Time;durP1;ratioP1;P1;durP2;ratioP2;P2;SDS_P1;SDS_P2;PMS_P1;PMS_P2;Temp;Humidity;BMP_temperature;BMP_pressure;BME280_temperature;BME280_humidity;BME280_pressure;Samples;Min_cycle;Max_cycle;Signal;HPM_P1;HPM_P2
2023/02/25 00:02:21;;;;;;;14.97;7.37;;;3.20;99.90;;;;;;4991969;28;20450;-77
2023/02/25 00:04:48;;;;;;;8.53;5.13;;;;;;;;;;4993212;28;20468;-72
2023/02/25 00:07:16;;;;;;;12.70;6.50;;;;;;;;;;4994526;28;20433;-72
2023/02/25 00:09:44;;;;;;;10.67;5.80;;;;;;;;;;4993704;28;20441;-72
2023/02/25 00:12:11;;;;;;;10.77;6.40;;;;;;;;;;4990093;28;20449;-72
2023/02/25 00:14:39;;;;;;;8.30;5.57;;;;;;;;;;4990484;28;20485;-74
2023/02/25 00:17:06;;;;;;;8.33;3.50;;;;;;;;;;4989669;28;20447;-73
2023/02/25 00:19:33;;;;;;;11.33;4.90;;;;;;;;;;4993470;28;21022;-73
2023/02/25 00:22:00;;;;;;;8.00;5.00;;;;;;;;;;4994954;28;20809;-73
2023/02/25 00:24:27;;;;;;;6.03;5.07;;;;;;;;;;4997330;28;20442;-76
2023/02/25 00:26:56;;;;;;;6.00;3.80;;;;;;;;;;4996740;28;20448;-73
2023/02/25 00:29:23;;;;;;;12.67;4.43;;;;;;;;;;4997324;28;20775;-73
2023/02/25 00:31:50;;;;;;;8.00;4.50;;;;;;;;;;4997239;28;20456;-73
2023/02/25 00:34:17;;;;;;;9.97;5.47;;;;;;;;;;4996790;28;20452;-72
2023/02/25 00:36:44;;;;;;;11.83;5.87;;;;;;;;;;4999352;28;20853;-72
2023/02/25 00:39:11;;;;;;;7.30;4.17;;;;;;;;;;4988641;28;20497;-73
2023/02/25 00:41:39;;;;;;;6.60;4.20;;;;;;;;;;4988791;28;20456;-72
2023/02/25 00:44:07;;;;;;;11.63;5.03;;;;;;;;;;4988723;28;20811;-72
2023/02/25 00:46:35;;;;;;;9.17;6.10;;;;;;;;;;4988889;28;20456;-72
2023/02/25 00:49:02;;;;;;;10.20;5.57;;;;;;;;;;4989337;28;20471;-72
2023/02/25 00:51:30;;;;;;;10.53;5.93;;;;;;;;;;4989136;28;20474;-72
2023/02/25 00:53:58;;;;;;;13.10;5.93;;;;;;;;;;4986115;28;20448;-72
2023/02/25 00:56:26;;;;;;;7.77;5.27;;;;;;;;;;4969728;28;20464;-72
2023/02/25 00:58:53;;;;;;;13.83;6.60;;;;;;;;;;4969502;28;20485;-73
2023/02/25 01:01:23;;;;;;;9.33;5.10;;;;;;;;;;4969587;28;20461;-73
2023/02/25 01:03:52;;;;;;;12.10;7.40;;;;;;;;;;4969646;28;20442;-72
2023/02/25 01:06:19;;;;;;;12.20;6.03;;;;;;;;;;4969489;28;20449;-72
2023/02/25 01:08:46;;;;;;;10.40;5.90;;;;;;;;;;4969648;28;20453;-73
2023/02/25 01:11:14;;;;;;;9.40;6.10;;;;;;;;;;4970511;28;20955;-73
2023/02/25 01:13:42;;;;;;;13.23;5.83;;;;;;;;;;4988958;28;20455;-81
2023/02/25 01:16:13;;;;;;;7.90;4.90;;;;;;;;;;4989045;28;20459;-72
2023/02/25 01:18:42;;;;;;;12.23;5.30;;;;;;;;;;4988551;28;20500;-73
2023/02/25 01:21:16;;;;;;;17.10;6.93;;;;;;;;;;4988746;28;20504;-73
2023/02/25 01:23:43;;;;;;;16.43;6.50;;;;;;;;;;4988652;28;20441;-73
2023/02/25 01:26:11;;;;;;;12.80;6.50;;;;;;;;;;4988938;28;20447;-72
2023/02/25 01:28:38;;;;;;;11.97;7.10;;;;;;;;;;4987374;28;20504;-73
2023/02/25 01:31:07;;;;;;;11.73;4.90;;;;;;;;;;4997179;28;20449;-73
2023/02/25 01:33:37;;;;;;;9.97;5.73;;;;;;;;;;4993537;28;20819;-73
2023/02/25 01:36:06;;;;;;;9.13;5.60;;;;;;;;;;4988896;28;20515;-73
2023/02/25 01:38:33;;;;;;;11.17;6.50;;;;;;;;;;4988726;28;20476;-73
2023/02/25 01:41:00;;;;;;;9.90;5.63;;;;;;;;;;4988850;28;20461;-73
2023/02/25 01:43:28;;;;;;;8.23;4.73;;;;;;;;;;4988844;28;20993;-72
2023/02/25 01:45:56;;;;;;;9.90;5.40;;;;;;;;;;4987245;28;20611;-73
2023/02/25 01:48:24;;;;;;;7.10;4.40;;;;;;;;;;4988685;28;20456;-73
2023/02/25 01:50:52;;;;;;;11.97;4.20;;;;;;;;;;4988716;28;20468;-72
2023/02/25 01:53:23;;;;;;;8.80;4.87;;;;;;;;;;4988269;28;20972;-75
2023/02/25 01:55:50;;;;;;;5.10;3.70;;;;;;;;;;4988507;28;20452;-73
2023/02/25 01:58:18;;;;;;;4.83;4.20;;;;;;;;;;4991514;28;20838;-73
2023/02/25 02:00:45;;;;;;;5.67;3.53;;;;;;;;;;4991669;28;20518;-73
2023/02/25 02:03:15;;;;;;;8.10;5.10;;;;;;;;;;4990633;28;20480;-73
2023/02/25 02:05:55;;;;;;;8.67;4.87;;;;;;;;;;4991964;28;20456;-72
2023/02/25 02:08:25;;;;;;;6.23;5.40;;;;;;;;;;4992640;28;20458;-73
2023/02/25 02:10:52;;;;;;;8.30;6.27;;;;;;;;;;4992650;28;20476;-73
2023/02/25 02:13:19;;;;;;;6.57;5.53;;;;;;;;;;4992450;28;20459;-73
2023/02/25 02:15:52;;;;;;;6.73;4.23;;;;;;;;;;4992456;28;20466;-72
2023/02/25 02:18:20;;;;;;;7.30;4.80;;;;;;;;;;4993540;28;20521;-73
2023/02/25 02:20:55;;;;;;;7.27;5.13;;;;;;;;;;5011625;28;21063;-72
2023/02/25 02:23:34;;;;;;;7.90;4.43;;;;;;;;;;5011801;28;20994;-72
2023/02/25 02:26:10;;;;;;;6.60;3.70;;;;;;;;;;5011738;28;20987;-73
2023/02/25 02:28:46;;;;;;;5.33;3.80;;;;;;;;;;5011806;28;20439;-72
2023/02/25 02:31:28;;;;;;;5.50;4.00;;;;;;;;;;5011524;28;20570;-74
2023/02/25 02:34:00;;;;;;;5.50;3.70;;;;;;;;;;5013449;28;20463;-72
2023/02/25 02:36:31;;;;;;;7.77;4.30;;;;;;;;;;5018344;28;21133;-72
2023/02/25 02:39:03;;;;;;;3.93;3.50;;;;;;;;;;5017470;28;20460;-72
2023/02/25 02:41:34;;;;;;;4.40;3.70;;;;;;;;;;5016701;28;20455;-75
2023/02/25 02:44:05;;;;;;;3.97;3.47;;;;;;;;;;5012851;28;20441;-74
2023/02/25 02:46:34;;;;;;;4.43;2.93;;;;;;;;;;5012410;28;20456;-72
2023/02/25 02:49:06;;;;;;;5.30;3.70;;;;;;;;;;5011343;28;20477;-72
2023/02/25 02:51:36;;;;;;;6.00;3.00;;;;;;;;;;5011741;28;20458;-72
2023/02/25 02:54:05;;;;;;;5.80;3.50;;;;;;;;;;5011564;28;20467;-72
2023/02/25 02:56:35;;;;;;;7.00;4.53;;;;;;;;;;5010890;28;20498;-73
2023/02/25 02:59:05;;;;;;;5.33;3.10;;;;;;;;;;5011330;28;20482;-72
2023/02/25 03:01:33;;;;;;;8.50;4.13;;;;;;;;;;5011295;28;20459;-72
2023/02/25 03:04:02;;;;;;;3.70;2.53;;;;;;;;;;5011165;28;20460;-72
2023/02/25 03:06:32;;;;;;;4.33;2.90;;;;;;;;;;5009398;28;20474;-72
2023/02/25 03:09:02;;;;;;;6.63;3.10;;;;;;;;;;5010085;28;20551;-72
2023/02/25 03:11:30;;;;;;;5.30;2.43;;;;;;;;;;5010197;28;20489;-72
2023/02/25 03:13:57;;;;;;;7.60;3.83;;;;;;;;;;5010097;28;20459;-74
2023/02/25 03:16:27;;;;;;;5.63;3.03;;;;;;;;;;5010320;28;20466;-72
2023/02/25 03:18:58;;;;;;;4.33;2.50;;;;;;;;;;5009718;28;20483;-72
2023/02/25 03:21:27;;;;;;;5.20;2.97;;;;;;;;;;5023236;28;20518;-74
2023/02/25 03:23:56;;;;;;;4.80;3.50;;;;;;;;;;5013593;28;20463;-73
2023/02/25 03:26:24;;;;;;;2.60;2.27;;;;;;;;;;5010190;28;20447;-73
2023/02/25 03:28:51;;;;;;;3.93;2.70;;;;;;;;;;5011883;28;20469;-73
2023/02/25 03:31:20;;;;;;;3.37;2.17;;;;;;;;;;5011597;28;20539;-73
2023/02/25 03:33:49;;;;;;;2.50;2.00;;;;;;;;;;5010091;28;21019;-74
2023/02/25 03:36:18;;;;;;;5.47;2.00;;;;;;;;;;5009744;28;20459;-73
2023/02/25 03:38:47;;;;;;;2.87;2.10;;;;;;;;;;5009578;28;20834;-72
2023/02/25 03:41:17;;;;;;;2.63;2.20;;;;;;;;;;5008445;28;21049;-73
2023/02/25 03:43:46;;;;;;;2.90;1.93;;;;;;;;;;5009746;28;21148;-73
2023/02/25 03:46:14;;;;;;;3.53;2.30;;;;;;;;;;5009619;28;20483;-73
2023/02/25 03:48:42;;;;;;;3.73;2.20;;;;;;;;;;5009240;28;20960;-73
2023/02/25 03:51:10;;;;;;;2.90;2.10;;;;;;;;;;5009473;28;20512;-75
2023/02/25 03:53:37;;;;;;;2.37;2.10;;;;;;;;;;5009225;28;20452;-73
2023/02/25 03:56:05;;;;;;;2.00;1.70;;;;;;;;;;5009165;28;20447;-73
2023/02/25 03:58:34;;;;;;;2.80;2.30;;;;;;;;;;5008201;28;20482;-73
2023/02/25 04:01:04;;;;;;;3.83;2.47;;;;;;;;;;5009212;28;20503;-73
2023/02/25 04:03:31;;;;;;;3.97;2.30;;;;;;;;;;5009023;28;20458;-73
2023/02/25 04:05:58;;;;;;;10.90;2.40;;;;;;;;;;5009162;28;20451;-73
2023/02/25 04:08:26;;;;;;;4.23;3.00;;;;;;;;;;5009286;28;20459;-73
2023/02/25 04:10:53;;;;;;;7.97;3.47;;;;;;;;;;5009047;28;20449;-73
2023/02/25 04:13:20;;;;;;;2.73;2.10;;;;;;;;;;5002898;28;20469;-74
2023/02/25 04:15:49;;;;;;;5.13;1.90;;;;;;;;;;4995576;28;20449;-74
2023/02/25 04:18:16;;;;;;;4.90;3.20;;;;;;;;;;5002780;28;20456;-73
2023/02/25 04:20:44;;;;;;;2.97;2.47;;;;;;;;;;4987005;28;20527;-73
2023/02/25 04:23:13;;;;;;;4.27;2.67;;;;;;;;;;4970321;28;20471;-73
2023/02/25 04:25:40;;;;;;;4.37;2.90;;;;;;;;;;4969871;28;20465;-73
2023/02/25 04:28:07;;;;;;;7.10;3.27;;;;;;;;;;4970065;28;20465;-73
2023/02/25 04:30:35;;;;;;;7.10;3.97;;;;;;;;;;4971789;28;20855;-73
2023/02/25 04:33:03;;;;;;;8.23;4.27;;;;;;;;;;4988044;28;20475;-73
2023/02/25 04:35:38;;;;;;;8.63;5.13;;;;;;;;;;4990878;28;20872;-76
2023/02/25 04:38:05;;;;;;;6.80;4.47;;;;;;;;;;4994515;28;20553;-72
2023/02/25 04:40:32;;;;;;;6.93;3.77;;;;;;;;;;4985269;28;20528;-73
2023/02/25 04:42:59;;;;;;;9.00;4.90;;;;;;;;;;5006225;28;20991;-71
2023/02/25 04:45:26;;;;;;;9.77;5.00;;;;;;;;;;5008527;28;20550;-71
2023/02/25 04:47:54;;;;;;;8.50;4.70;;;;;;;;;;5006263;28;20458;-72
2023/02/25 04:50:22;;;;;;;8.40;6.20;;;;;;;;;;4987847;28;20436;-71
2023/02/25 04:52:50;;;;;;;13.63;5.10;;;;;;;;;;4989071;28;20492;-77
2023/02/25 04:55:18;;;;;;;8.83;5.10;;;;;;;;;;4988829;28;20448;-72
2023/02/25 04:57:45;;;;;;;8.40;5.00;;;;;;;;;;4989273;28;20459;-71
2023/02/25 05:00:18;;;;;;;6.40;4.10;;;;;;;;;;4988972;28;20489;-72
2023/02/25 05:02:46;;;;;;;7.43;5.80;;;;;;;;;;4989092;28;20459;-72
2023/02/25 05:05:13;;;;;;;6.97;5.60;;;;;;;;;;4987255;28;20466;-73
2023/02/25 05:07:42;;;;;;;7.20;5.43;;;;;;;;;;4995971;28;20456;-73
2023/02/25 05:10:10;;;;;;;9.03;5.93;;;;;;;;;;5009579;28;20454;-74
2023/02/25 05:12:37;;;;;;;9.47;6.53;;;;;;;;;;5009660;28;20456;-73
2023/02/25 05:15:07;;;;;;;10.40;6.90;;;;;;;;;;5009042;28;20451;-74
2023/02/25 05:17:34;;;;;;;12.67;7.47;;;;;;;;;;5008908;28;20463;-74
2023/02/25 05:20:03;;;;;;;18.07;8.80;;;;;;;;;;5019946;28;20503;-73
2023/02/25 05:22:31;;;;;;;10.70;5.93;;;;;;;;;;5008953;28;20567;-73
2023/02/25 05:24:59;;;;;;;12.13;8.23;;;;;;;;;;5009249;28;20448;-73
2023/02/25 05:27:26;;;;;;;12.90;6.60;;;;;;;;;;5008602;28;20461;-74
2023/02/25 05:29:54;;;;;;;16.60;7.00;;;;;;;;;;5008817;28;20838;-73
2023/02/25 05:32:21;;;;;;;15.47;8.23;;;;;;;;;;5012582;28;20463;-73
2023/02/25 05:34:49;;;;;;;14.07;7.50;;;;;;;;;;5012793;28;20455;-74
2023/02/25 05:37:16;;;;;;;13.07;6.60;;;;;;;;;;5010835;28;20518;-73
2023/02/25 05:39:43;;;;;;;13.60;7.93;;;;;;;;;;5012781;28;20457;-73
2023/02/25 05:42:12;;;;;;;11.40;7.87;;;;;;;;;;5012721;28;20562;-73
2023/02/25 05:44:39;;;;;;;13.40;8.07;;;;;;;;;;5012478;28;20446;-73
2023/02/25 05:47:07;;;;;;;8.83;6.30;;;;;;;;;;5012310;28;20446;-74
2023/02/25 05:49:34;;;;;;;18.80;7.83;;;;;;;;;;5012346;28;20535;-73
2023/02/25 05:52:01;;;;;;;17.30;9.33;;;;;;;;;;5012064;28;20533;-73
2023/02/25 05:54:28;;;;;;;15.30;8.50;;;;;;;;;;5010623;28;20459;-73
2023/02/25 05:56:55;;;;;;;12.40;6.80;;;;;;;;;;5011987;28;20451;-73
2023/02/25 05:59:24;;;;;;;18.53;10.10;;;;;;;;;;5012418;28;20523;-74
2023/02/25 06:01:51;;;;;;;14.43;7.00;;;;;;;;;;5012762;28;20586;-77
2023/02/25 06:04:18;;;;;;;13.60;6.60;;;;;;;;;;5015129;28;20467;-76
2023/02/25 06:06:49;;;;;;;14.10;8.40;;;;;;;;;;5019721;28;20960;-74
2023/02/25 06:09:17;;;;;;;15.07;7.33;;;;;;;;;;5014825;28;20478;-79
2023/02/25 06:11:45;;;;;;;13.50;8.50;;;;;;;;;;5008476;28;20475;-74
2023/02/25 06:14:13;;;;;;;11.60;8.53;;;;;;;;;;5010178;28;20476;-75
2023/02/25 06:16:41;;;;;;;15.43;7.57;;;;;;;;;;5007870;28;20454;-74
2023/02/25 06:19:09;;;;;;;10.77;6.80;;;;;;;;;;5031660;28;20526;-74
2023/02/25 06:21:36;;;;;;;14.90;8.60;;;;;;;;;;5031390;28;20572;-73
2023/02/25 06:24:04;;;;;;;11.77;6.60;;;;;;;;;;5031522;28;20468;-72
2023/02/25 06:26:31;;;;;;;13.40;6.70;;;;;;;;;;5031291;28;20822;-74
2023/02/25 06:28:58;;;;;;;13.90;7.60;;;;;;;;;;5018961;28;20622;-74
2023/02/25 06:31:25;;;;;;;16.47;7.60;;;;;;;;;;5011685;28;20459;-74
2023/02/25 06:33:54;;;;;;;13.50;8.37;;;;;;;;;;5011973;28;20945;-74
2023/02/25 06:36:21;;;;;;;12.73;7.53;;;;;;;;;;4999242;28;20472;-73
2023/02/25 06:38:49;;;;;;;16.93;7.30;;;;;;;;;;5015274;28;20493;-73
2023/02/25 06:41:17;;;;;;;17.33;7.80;;;;;;;;;;5011740;28;20493;-74
2023/02/25 06:43:44;;;;;;;13.20;8.20;;;;;;;;;;5011892;28;20909;-75
2023/02/25 06:46:13;;;;;;;13.17;7.03;;;;;;;;;;5007925;28;20467;-73
2023/02/25 06:48:40;;;;;;;11.20;6.63;;;;;;;;;;5001484;28;20465;-74
2023/02/25 06:51:10;;;;;;;14.60;8.33;;;;;;;;;;4993289;28;21009;-75
2023/02/25 06:53:37;;;;;;;16.77;7.67;;;;;;;;;;4996593;28;20448;-74
2023/02/25 06:56:05;;;;;;;16.73;6.50;;;;;;;;;;4998593;28;20463;-75
2023/02/25 06:58:32;;;;;;;12.90;8.27;;;;;;;;;;5013162;28;20471;-78
2023/02/25 07:00:59;;;;;;;10.53;6.57;;;;;;;;;;5012706;28;20494;-77
2023/02/25 07:03:27;;;;;;;12.27;7.60;;;;;;;;;;5017338;28;20440;-77
2023/02/25 07:05:54;;;;;;;17.47;9.03;;;;;;;;;;5018269;28;20482;-77
2023/02/25 07:08:22;;;;;;;16.07;9.37;;;;;;;;;;5015951;28;20477;-78
2023/02/25 07:10:50;;;;;;;14.07;7.83;;;;;;;;;;5018546;28;20482;-78
2023/02/25 07:13:17;;;;;;;18.90;8.90;;;;;;;;;;5018366;28;20527;-80
2023/02/25 07:15:44;;;;;;;11.50;7.17;;;;;;;;;;5016586;28;20463;-79
2023/02/25 07:18:11;;;;;;;13.30;7.90;;;;;;;;;;5016242;28;20571;-78
2023/02/25 07:20:39;;;;;;;13.50;7.40;;;;;;;;;;4996705;28;21260;-77
2023/02/25 07:23:06;;;;;;;11.97;6.97;;;;;;;;;;4996689;28;20456;-77
2023/02/25 07:25:35;;;;;;;11.63;6.07;;;;;;;;;;4997457;28;20500;-78
2023/02/25 07:28:02;;;;;;;12.60;7.67;;;;;;;;;;4996906;28;20547;-78
2023/02/25 07:30:29;;;;;;;12.83;8.07;;;;;;;;;;4997119;28;20934;-79
2023/02/25 07:32:56;;;;;;;11.90;7.10;;;;;;;;;;4982076;28;20473;-82
2023/02/25 07:35:23;;;;;;;15.20;8.30;;;;;;;;;;4977606;28;20834;-78
2023/02/25 07:37:51;;;;;;;11.80;7.30;;;;;;;;;;4998052;28;20452;-80
2023/02/25 07:40:18;;;;;;;12.90;6.83;;;1.60;99.90;;;;;;4998350;28;20480;-79
2023/02/25 07:42:47;;;;;;;12.87;7.23;;;;;;;;;;5001437;28;20929;-84
2023/02/25 07:45:14;;;;;;;16.50;8.03;;;;;;;;;;4999683;28;20966;-79
2023/02/25 07:47:41;;;;;;;10.07;6.40;;;;;;;;;;5001158;28;20452;-79
2023/02/25 07:50:09;;;;;;;9.53;5.53;;;;;;;;;;5001447;28;20454;-80
2023/02/25 07:52:36;;;;;;;15.63;7.73;;;;;;;;;;4999507;28;20452;-80
2023/02/25 07:55:04;;;;;;;10.17;6.57;;;;;;;;;;4998113;28;20475;-81
2023/02/25 07:57:31;;;;;;;9.53;6.27;;;1.90;99.90;;;;;;4998597;28;20948;-79
2023/02/25 07:59:59;;;;;;;13.90;8.50;;;;;;;;;;4998058;28;20469;-79
2023/02/25 08:02:26;;;;;;;12.70;7.17;;;;;;;;;;4987254;28;20496;-77
2023/02/25 08:04:53;;;;;;;10.07;6.27;;;2.00;99.90;;;;;;4983623;28;20476;-78
2023/02/25 08:07:25;;;;;;;13.90;6.50;;;1.90;99.90;;;;;;4999256;28;20461;-78
2023/02/25 08:09:52;;;;;;;9.63;5.40;;;1.90;99.90;;;;;;4998980;28;20460;-79
2023/02/25 08:12:19;;;;;;;11.10;7.33;;;1.90;99.90;;;;;;4999911;28;20548;-79
2023/02/25 08:14:46;;;;;;;11.93;6.50;;;1.90;99.90;;;;;;5001277;28;20513;-74
2023/02/25 08:17:14;;;;;;;10.90;6.03;;;;;;;;;;4995019;28;20461;-74
2023/02/25 08:19:42;;;;;;;7.80;5.50;;;;;;;;;;4991316;28;20550;-73
2023/02/25 08:22:10;;;;;;;9.70;6.20;;;2.20;99.90;;;;;;4990863;28;20496;-72
2023/02/25 08:24:37;;;;;;;10.80;5.90;;;2.00;99.90;;;;;;4991886;28;20816;-74
2023/02/25 08:27:06;;;;;;;7.13;4.97;;;;;;;;;;4991495;28;20935;-71
2023/02/25 08:29:33;;;;;;;12.20;5.07;;;2.00;99.90;;;;;;4991310;28;20460;-74
2023/02/25 08:32:00;;;;;;;7.80;5.60;;;1.90;99.90;;;;;;4991536;28;20461;-72
2023/02/25 08:34:28;;;;;;;12.07;5.03;;;1.90;99.90;;;;;;4991459;28;20440;-73
2023/02/25 08:36:56;;;;;;;6.30;5.07;;;;;;;;;;4972219;28;20559;-76
2023/02/25 08:39:23;;;;;;;9.80;4.70;;;2.10;99.90;;;;;;4992814;28;20449;-77
2023/02/25 08:41:50;;;;;;;7.90;4.33;;;2.10;99.90;;;;;;4993811;28;20480;-75
2023/02/25 08:44:18;;;;;;;22.67;6.80;;;2.20;99.90;;;;;;4994174;28;20573;-79
2023/02/25 08:46:46;;;;;;;7.57;4.70;;;;;;;;;;4993182;28;20842;-79
2023/02/25 08:49:13;;;;;;;10.20;4.30;;;;;;;;;;5005381;28;20476;-80
2023/02/25 08:51:42;;;;;;;7.80;3.63;;;;;;;;;;4996952;28;20575;-78
2023/02/25 08:54:11;;;;;;;9.10;5.37;;;;;;;;;;4994113;28;20440;-79
2023/02/25 08:56:42;;;;;;;8.80;4.30;;;;;;;;;;4992577;28;20798;-79
2023/02/25 08:59:11;;;;;;;6.90;4.30;;;;;;;;;;4995327;28;21060;-80
2023/02/25 09:01:44;;;;;;;7.80;4.03;;;2.10;99.90;;;;;;4993536;28;20568;-78
2023/02/25 09:04:13;;;;;;;4.93;3.30;;;2.10;99.90;;;;;;4994377;28;20455;-79
2023/02/25 09:06:41;;;;;;;7.97;4.03;;;;;;;;;;4995927;28;20466;-80
2023/02/25 09:09:10;;;;;;;5.30;4.03;;;;;;;;;;4994384;28;20457;-78
2023/02/25 09:11:37;;;;;;;5.70;4.33;;;;;;;;;;4994085;28;20463;-80
2023/02/25 09:14:04;;;;;;;11.23;3.17;;;2.50;99.90;;;;;;4995822;28;20957;-78
2023/02/25 09:16:31;;;;;;;3.90;3.27;;;2.40;99.90;;;;;;4995222;28;20444;-78
2023/02/25 09:18:58;;;;;;;6.70;3.10;;;2.50;99.90;;;;;;5001530;28;20511;-77
2023/02/25 09:21:25;;;;;;;6.37;3.80;;;2.40;99.90;;;;;;5012181;28;20566;-77
2023/02/25 09:23:53;;;;;;;6.23;5.10;;;2.60;99.90;;;;;;5010816;28;20956;-71
2023/02/25 09:26:21;;;;;;;4.13;2.57;;;2.90;99.90;;;;;;5015040;28;20447;-71
2023/02/25 09:28:49;;;;;;;3.23;2.63;;;2.80;99.90;;;;;;5170470;23;20476;-78
2023/02/25 09:31:19;;;;;;;5.77;3.80;;;2.70;99.90;;;;;;5773733;23;22284;-79
2023/02/25 09:36:22;;;;;;;3.93;2.70;;;2.60;99.90;;;;;;5001721;26;20485;-75
2023/02/25 09:38:50;;;;;;;3.37;2.37;;;2.40;99.90;;;;;;5058424;28;20473;-74
2023/02/25 09:41:28;;;;;;;6.00;3.23;;;2.40;99.90;;;;;;5055196;28;20453;-74
2023/02/25 09:44:04;;;;;;;7.53;2.93;;;2.70;99.90;;;;;;5052177;28;20477;-76
2023/02/25 09:46:33;;;;;;;5.73;3.93;;;3.10;99.90;;;;;;5054232;28;20671;-78
2023/02/25 09:49:03;;;;;;;6.40;3.13;;;3.20;99.90;;;;;;5054345;28;20532;-77
2023/02/25 09:51:36;;;;;;;5.70;3.30;;;3.10;99.90;;;;;;5055703;28;20614;-77
2023/02/25 09:54:14;;;;;;;3.40;2.13;;;3.10;99.90;;;;;;5051639;28;20516;-79
2023/02/25 09:56:42;;;;;;;5.60;3.10;;;3.60;99.90;;;;;;5054210;28;20961;-78
2023/02/25 09:59:15;;;;;;;4.03;2.50;;;3.70;99.90;;;;;;5051236;28;20947;-77
2023/02/25 10:01:45;;;;;;;5.73;2.60;;;4.20;99.90;;;;;;5049691;28;20474;-71
2023/02/25 10:04:17;;;;;;;3.90;3.60;;;3.90;99.90;;;;;;5056724;28;20441;-73
2023/02/25 10:06:47;;;;;;;3.10;2.20;;;3.80;99.90;;;;;;5060818;28;20446;-79
2023/02/25 10:11:57;;;;;;;6.17;2.73;;;2.80;99.90;;;;;;5241376;23;20512;-76
2023/02/25 10:14:39;;;;;;;4.07;2.07;;;2.70;99.90;;;;;;5052761;28;20457;-80
2023/02/25 10:17:16;;;;;;;3.60;3.07;;;2.60;99.90;;;;;;5051976;28;20465;-75
2023/02/25 10:20:03;;;;;;;2.33;2.00;;;2.60;99.90;;;;;;5042695;28;20478;-75
2023/02/25 10:22:42;;;;;;;7.60;2.93;;;2.70;99.90;;;;;;5027799;28;20488;-77
2023/02/25 10:25:16;;;;;;;8.30;3.43;;;2.60;99.90;;;;;;5037913;28;20450;-80
2023/02/25 10:27:49;;;;;;;12.27;6.23;;;2.70;99.90;;;;;;5056913;28;20482;-80
2023/02/25 10:32:52;;;;;;;8.50;2.10;;;2.90;99.90;;;;;;5446190;23;20474;-78
2023/02/25 10:35:27;;;;;;;6.03;2.00;;;2.80;99.90;;;;;;5003351;28;20467;-79
2023/02/25 10:37:56;;;;;;;7.83;2.47;;;;;;;;;;5004279;28;20456;-79
2023/02/25 10:40:28;;;;;;;3.83;2.10;;;2.40;99.90;;;;;;5007972;28;20437;-79
2023/02/25 10:43:01;;;;;;;6.10;2.80;;;3.00;99.90;;;;;;5002366;28;20551;-79
2023/02/25 10:45:30;;;;;;;3.10;2.13;;;2.90;99.90;;;;;;5006601;28;20447;-80
2023/02/25 10:48:05;;;;;;;3.10;2.27;;;3.00;99.90;;;;;;5005658;28;20437;-79
2023/02/25 10:50:33;;;;;;;11.70;3.60;;;3.20;99.90;;;;;;4997857;28;20523;-79
2023/02/25 10:53:02;;;;;;;6.47;1.73;;;3.20;99.90;;;;;;5006245;28;20604;-80
2023/02/25 10:55:50;;;;;;;4.30;2.27;;;3.10;99.90;;;;;;5011186;28;20524;-79
2023/02/25 10:58:32;;;;;;;4.77;2.80;;;3.10;99.90;;;;;;5002672;28;20444;-78
2023/02/25 11:01:03;;;;;;;3.07;1.80;;;3.10;99.90;;;;;;5004759;28;20576;-80
2023/02/25 11:03:35;;;;;;;7.03;2.70;;;3.10;99.90;;;;;;5008083;28;20892;-81
2023/02/25 11:06:12;;;;;;;3.13;2.60;;;3.20;99.90;;;;;;4992691;28;20488;-78
2023/02/25 11:08:40;;;;;;;5.97;2.17;;;3.10;99.90;;;;;;5006387;28;20538;-78
2023/02/25 11:11:19;;;;;;;3.40;2.40;;;3.20;99.90;;;;;;5000507;28;20444;-79
2023/02/25 11:14:00;;;;;;;2.50;1.50;;;3.30;99.90;;;;;;4995462;28;20452;-78
2023/02/25 11:16:30;;;;;;;5.97;2.50;;;3.30;99.90;;;;;;5003876;28;20455;-78
2023/02/25 11:19:00;;;;;;;6.23;2.73;;;3.40;99.90;;;;;;5007287;28;20816;-79
2023/02/25 11:21:34;;;;;;;5.57;2.77;;;3.50;99.90;;;;;;5003169;28;20965;-79
2023/02/25 11:24:04;;;;;;;3.40;2.23;;;3.60;99.90;;;;;;5000837;28;20443;-82
2023/02/25 11:26:35;;;;;;;3.80;1.47;;;3.70;99.90;;;;;;5004239;28;20966;-77
2023/02/25 11:29:10;;;;;;;8.40;2.70;;;3.90;99.90;;;;;;4994982;28;20440;-77
2023/02/25 11:31:44;;;;;;;4.00;1.73;;;3.70;99.90;;;;;;5002656;28;20463;-78
2023/02/25 11:34:24;;;;;;;6.73;1.80;;;3.70;99.90;;;;;;5001521;28;21097;-78
2023/02/25 11:36:52;;;;;;;1.83;1.70;;;3.70;99.90;;;;;;4997584;28;20566;-79
2023/02/25 11:39:29;;;;;;;3.17;1.60;;;3.80;99.90;;;;;;5013582;28;20454;-76
2023/02/25 11:41:59;;;;;;;9.27;1.57;;;3.70;99.90;;;;;;5015315;28;20575;-82
2023/02/25 11:47:29;;;;;;;2.00;1.50;;;4.40;99.90;;;;;;5220524;22;20476;-80
2023/02/25 11:50:15;;;;;;;6.47;1.67;;;3.90;99.90;;;;;;4998002;28;20442;-80
2023/02/25 11:52:47;;;;;;;4.50;1.80;;;3.50;99.90;;;;;;4998253;28;20470;-80
2023/02/25 11:55:41;;;;;;;2.67;1.73;;;3.90;99.90;;;;;;5013393;28;20468;-81
2023/02/25 11:58:18;;;;;;;4.20;1.70;;;3.60;99.90;;;;;;5006037;28;20462;-74
2023/02/25 12:00:51;;;;;;;2.97;1.67;;;;;;;;;;5000698;23;20544;-80
2023/02/25 12:03:34;;;;;;;4.40;1.20;;;;;;;;;;5092528;23;20468;-75
2023/02/25 12:06:06;;;;;;;2.50;1.63;;;;;;;;;;4943771;29;21023;-74
2023/02/25 12:08:48;;;;;;;2.47;1.20;;;;;;;;;;5075297;23;20496;-80
2023/02/25 12:11:31;;;;;;;2.40;1.40;;;;;;;;;;4998990;28;20433;-80
2023/02/25 12:14:13;;;;;;;5.47;2.73;;;;;;;;;;4999439;28;20449;-80
2023/02/25 12:17:00;;;;;;;5.27;2.00;;;;;;;;;;5069400;23;20485;-81
2023/02/25 12:19:45;;;;;;;1.80;1.20;;;;;;;;;;5019001;28;20436;-79
2023/02/25 12:25:03;;;;;;;6.23;1.33;;;;;;;;;;5858068;23;20480;-82
2023/02/25 12:27:54;;;;;;;1.77;1.67;;;;;;;;;;4988885;28;20883;-88
2023/02/25 12:30:52;;;;;;;2.20;1.60;;;;;;;;;;4997765;28;20449;-82
2023/02/25 12:33:35;;;;;;;6.43;1.73;;;;;;;;;;4937172;29;20579;-83
2023/02/25 12:36:08;;;;;;;3.43;1.97;;;;;;;;;;5008007;28;20450;-82
2023/02/25 12:38:50;;;;;;;2.37;1.43;;;;;;;;;;5000139;28;20436;-84
2023/02/25 12:41:22;;;;;;;1.53;1.10;;;;;;;;;;5008588;28;20432;-83
2023/02/25 12:43:50;;;;;;;2.40;1.70;;;;;;;;;;5009389;28;20492;-86
2023/02/25 12:46:25;;;;;;;5.73;1.50;;;;;;;;;;5007885;28;20468;-85
2023/02/25 12:49:04;;;;;;;2.73;1.70;;;;;;;;;;5008920;28;20448;-87
2023/02/25 12:51:45;;;;;;;2.67;1.60;;;;;;;;;;5018338;28;20455;-81
2023/02/25 12:54:28;;;;;;;2.57;1.50;;;;;;;;;;5038404;28;20503;-80
2023/02/25 12:57:16;;;;;;;2.67;2.03;;;;;;;;;;5038696;28;20439;-80
2023/02/25 13:10:17;;;;;;;5.50;2.00;;;;;;;;;;5351772;23;20480;-80
2023/02/25 13:12:53;;;;;;;3.90;1.90;;;;;;;;;;5017979;28;20524;-82
2023/02/25 13:15:26;;;;;;;1.73;1.60;;;5.10;99.90;;;;;;5018075;28;20455;-80
2023/02/25 13:18:26;;;;;;;1.40;1.30;;;5.50;99.90;;;;;;5001889;28;20444;-79
2023/02/25 13:23:39;;;;;;;2.33;1.50;;;;;;;;;;6119473;23;20419;-81
2023/02/25 13:26:21;;;;;;;2.10;1.50;;;6.90;99.90;;;;;;4971858;28;20431;-86
2023/02/25 13:29:20;;;;;;;4.30;2.47;;;7.30;99.90;;;;;;4972382;29;20474;-82
2023/02/25 13:31:55;;;;;;;6.77;1.50;;;7.40;99.90;;;;;;4970608;28;20439;-81
2023/02/25 13:40:04;;;;;;;2.20;1.70;;;5.40;99.90;;;;;;5122853;23;20481;-79
2023/02/25 13:42:55;;;;;;;2.60;1.47;;;5.60;99.90;;;;;;4993316;28;20484;-79
2023/02/25 13:45:49;;;;;;;2.70;1.40;;;5.00;99.90;;;;;;4976118;28;20446;-80
2023/02/25 13:48:47;;;;;;;1.83;1.27;;;5.20;99.90;;;;;;5016650;28;20442;-79
2023/02/25 13:54:09;;;;;;;7.50;1.50;;;5.50;99.90;;;;;;5987915;23;20453;-79
2023/02/25 13:56:55;;;;;;;2.87;1.50;;;5.20;99.90;;;;;;5021967;28;20424;-81
2023/02/25 13:59:57;;;;;;;3.20;1.33;;;4.60;99.90;;;;;;5021707;28;20436;-80
2023/02/25 14:05:28;;;;;;;1.73;1.20;;;4.50;99.90;;;;;;5406367;23;20493;-76
2023/02/25 14:08:07;;;;;;;2.70;1.37;;;4.40;99.90;;;;;;5057553;28;20466;-76
2023/02/25 14:10:44;;;;;;;3.63;1.50;;;4.20;99.90;;;;;;5045948;28;20554;-76
2023/02/25 14:13:28;;;;;;;3.23;1.30;;;4.20;99.90;;;;;;5034465;28;20462;-75
2023/02/25 14:16:07;;;;;;;2.00;1.53;;;4.30;99.90;;;;;;5034117;28;20553;-76
2023/02/25 14:18:55;;;;;;;2.70;1.50;;;4.30;99.90;;;;;;5038619;28;20459;-76
2023/02/25 14:21:41;;;;;;;2.03;1.40;;;4.30;99.90;;;;;;5046682;28;20819;-81
2023/02/25 14:24:16;;;;;;;3.67;1.20;;;4.20;99.90;;;;;;5168960;23;20482;-80
2023/02/25 14:26:52;;;;;;;1.40;1.27;;;4.20;99.90;;;;;;5011778;28;20566;-76
2023/02/25 14:29:27;;;;;;;2.00;1.53;;;4.10;99.90;;;;;;4996198;28;20468;-76
2023/02/25 14:32:13;;;;;;;4.40;1.60;;;4.10;99.90;;;;;;5007856;28;20436;-76
2023/02/25 14:34:49;;;;;;;1.50;1.40;;;4.10;99.90;;;;;;5009647;28;20463;-77
2023/02/25 14:37:31;;;;;;;1.77;1.40;;;4.00;99.90;;;;;;5010088;28;20456;-77
2023/02/25 14:40:17;;;;;;;3.37;1.30;;;4.00;99.90;;;;;;5010016;28;20570;-76
2023/02/25 14:43:08;;;;;;;3.97;1.47;;;4.00;99.90;;;;;;5009190;28;20533;-76
2023/02/25 14:45:39;;;;;;;2.07;1.47;;;4.00;99.90;;;;;;5001413;28;20473;-78
2023/02/25 14:48:14;;;;;;;3.23;1.43;;;4.10;99.90;;;;;;5003124;28;20526;-77
2023/02/25 14:50:46;;;;;;;5.43;1.70;;;4.10;99.90;;;;;;5001542;28;20459;-77
2023/02/25 14:53:44;;;;;;;2.17;1.97;;;3.90;99.90;;;;;;5007316;28;20927;-77
2023/02/25 14:56:43;;;;;;;3.70;2.07;;;4.00;99.90;;;;;;4982032;28;20475;-77
2023/02/25 14:59:48;;;;;;;7.30;2.47;;;4.00;99.90;;;;;;5002485;28;20903;-76
2023/02/25 15:02:28;;;;;;;6.63;3.00;;;3.90;99.90;;;;;;5015062;28;20953;-79
2023/02/25 15:05:24;;;;;;;4.33;2.33;;;3.60;99.90;;;;;;5011694;28;20501;-78